Toluca, Illinois
Current Conditions -  °F | °C
As of 12:35 PM on Wednesday 26 Nov 2014 (Local Time) from KC75 Reporting Station
Overcast Overcast  
Wind Chill: 21°   Ceiling: 1200
Heat Index: 29°   Visibility: 7mi
Dew Point: 24°   Wind: 8mph
Humidity: 82%   Direction: 100°E
Pressure: 30.07"   Gusts: NA
Location:  41°N, 89.13°W
Report Text: KC75 261835Z AUTO 10007KT 7SM OVC012 M02/M04 A3007 RMK AO2 T10171044
Loading
Personal Weather Stations






























Interactive Weather Map New forecast layout! Learn more

10-Day Weather Forecast

Advertisements
Track Severe Weather on mobile